Buena Vista, Wisconsin
Current Conditions -  °F | °C
As of 10:55 PM on Thursday 30 Oct 2014 (Local Time) from KSTE Reporting Station
Overcast Overcast  
Wind Chill: 31°   Ceiling: 2400
Heat Index: 38°   Visibility: 10mi
Dew Point: 30°   Wind: 12mph
Humidity: 72%   Direction: 320°NW
Pressure: 30.07"   Gusts: 24mph
Location:  44.4117°N, 89.5378°W
Report Text: KSTE 310355Z AUTO 32010G21KT 10SM BKN024 BKN034 OVC065 04/M01 A3007 RMK AO2 T00361010
Loading
Personal Weather Stations






























Interactive Weather Map
Tropical Storm Tracking
New forecast layout! Learn more

10-Day Weather Forecast

Advertisements
Track Severe Weather on mobile